createdAt,value
2019-05-07T00:02:02.511Z,92.10
2019-05-07T00:04:30.486Z,92.50
2019-05-07T00:06:58.932Z,93.00
2019-05-07T00:09:27.479Z,93.20
2019-05-07T00:11:55.955Z,93.50
2019-05-07T00:14:24.505Z,93.70
2019-05-07T00:16:53.558Z,93.40
2019-05-07T00:19:23.155Z,93.40
2019-05-07T00:21:52.770Z,93.40
2019-05-07T00:24:22.418Z,93.30
2019-05-07T00:26:53.061Z,92.90
2019-05-07T00:29:22.363Z,93.20
2019-05-07T00:31:52.086Z,93.40
2019-05-07T00:34:22.409Z,93.00
2019-05-07T00:36:58.127Z,92.70
2019-05-07T00:39:28.186Z,92.90
2019-05-07T00:41:58.267Z,92.80
2019-05-07T00:44:26.769Z,93.20
2019-05-07T00:46:55.174Z,93.10
2019-05-07T00:49:25.554Z,93.40
2019-05-07T00:51:54.078Z,93.20
2019-05-07T00:54:23.098Z,93.30
2019-05-07T00:56:52.103Z,93.10
2019-05-07T00:59:22.524Z,93.10
2019-05-07T01:01:52.823Z,92.90
2019-05-07T01:04:22.892Z,93.30
2019-05-07T01:06:53.198Z,94.10
2019-05-07T01:09:22.898Z,94.20
2019-05-07T01:11:52.271Z,94.10
2019-05-07T01:14:22.854Z,94.00
2019-05-07T01:16:52.898Z,94.00
2019-05-07T01:19:21.995Z,94.10
2019-05-07T01:21:52.482Z,94.10
2019-05-07T01:24:23.056Z,94.20
2019-05-07T01:26:52.976Z,94.50
2019-05-07T01:29:22.604Z,94.70
2019-05-07T01:31:52.828Z,94.60
2019-05-07T01:34:25.609Z,94.40
2019-05-07T01:36:54.058Z,94.60
2019-05-07T01:39:23.196Z,94.80
2019-05-07T01:41:52.448Z,95.20
2019-05-07T01:44:22.156Z,95.50
2019-05-07T01:46:52.755Z,95.40
2019-05-07T01:49:20.960Z,95.60
2019-05-07T01:51:49.427Z,95.20
2019-05-07T01:54:17.924Z,94.80
2019-05-07T01:56:46.599Z,94.70
2019-05-07T01:59:15.042Z,94.80
2019-05-07T02:01:43.947Z,95.00
2019-05-07T02:04:14.062Z,95.40
2019-05-07T02:07:02.684Z,95.30
2019-05-07T02:09:44.110Z,94.70
2019-05-07T02:12:17.300Z,94.20
2019-05-07T02:14:45.775Z,94.70
2019-05-07T02:17:14.261Z,95.00
2019-05-07T02:19:42.707Z,94.90
2019-05-07T02:22:13.281Z,95.30
2019-05-07T02:24:43.405Z,94.80
2019-05-07T02:27:12.631Z,94.70
2019-05-07T02:29:43.083Z,94.50
2019-05-07T02:32:13.377Z,94.30
2019-05-07T02:34:44.172Z,93.80
2019-05-07T02:37:13.527Z,94.00
2019-05-07T02:39:49.414Z,93.70
2019-05-07T02:42:17.955Z,93.40
2019-05-07T02:45:04.604Z,93.20
2019-05-07T02:47:34.388Z,93.00
2019-05-07T02:50:23.353Z,93.50
2019-05-07T02:52:56.171Z,93.60
2019-05-07T02:55:29.173Z,93.90
2019-05-07T02:57:57.675Z,94.10
2019-05-07T03:00:26.216Z,94.50
2019-05-07T03:02:54.722Z,94.70
2019-05-07T03:05:23.375Z,94.90
2019-05-07T03:07:53.558Z,95.00
2019-05-07T03:10:23.664Z,95.10
2019-05-07T03:12:53.639Z,95.10
2019-05-07T03:15:24.198Z,95.10
2019-05-07T03:17:53.801Z,95.10
2019-05-07T03:20:24.181Z,95.00
2019-05-07T03:22:53.793Z,94.70
2019-05-07T03:25:26.618Z,94.70
2019-05-07T03:27:55.095Z,94.90
2019-05-07T03:30:36.078Z,95.10
2019-05-07T03:33:16.072Z,94.90
2019-05-07T03:35:46.783Z,95.00
2019-05-07T03:38:13.895Z,94.90
2019-05-07T03:40:44.859Z,95.00
2019-05-07T03:43:13.875Z,95.50
2019-05-07T03:45:47.219Z,95.60
2019-05-07T03:48:19.441Z,94.50
2019-05-07T03:50:49.147Z,94.60
2019-05-07T03:53:17.742Z,94.70
2019-05-07T03:55:46.199Z,95.10
2019-05-07T03:58:14.972Z,94.70
2019-05-07T04:00:44.553Z,95.10
2019-05-07T04:03:16.343Z,95.10
2019-05-07T04:05:43.717Z,94.90
2019-05-07T04:08:13.103Z,94.60
2019-05-07T04:10:44.159Z,93.30
2019-05-07T04:13:13.310Z,93.30
2019-05-07T04:15:43.805Z,93.60
2019-05-07T04:18:13.372Z,93.50
2019-05-07T04:20:43.474Z,93.60
2019-05-07T04:23:13.874Z,93.30
2019-05-07T04:25:46.914Z,93.30
2019-05-07T04:28:19.996Z,93.50
2019-05-07T04:30:49.064Z,93.50
2019-05-07T04:33:23.710Z,93.50
2019-05-07T04:35:54.051Z,93.20
2019-05-07T04:38:23.848Z,93.00
2019-05-07T04:40:53.838Z,92.80
2019-05-07T04:43:23.422Z,92.70
2019-05-07T04:45:53.759Z,92.60
2019-05-07T04:48:23.296Z,92.50
2019-05-07T04:50:54.387Z,92.60
2019-05-07T04:53:23.882Z,92.60
2019-05-07T04:55:53.576Z,92.40
2019-05-07T04:58:23.744Z,92.40
2019-05-07T05:00:53.811Z,92.20
2019-05-07T05:03:24.335Z,91.90
2019-05-07T05:05:53.477Z,91.80
2019-05-07T05:08:23.302Z,91.80
2019-05-07T05:10:53.815Z,91.80
2019-05-07T05:13:23.673Z,91.80
2019-05-07T05:15:52.832Z,91.80
2019-05-07T05:18:22.019Z,91.50
2019-05-07T05:20:52.378Z,91.30
2019-05-07T05:23:22.813Z,90.80
2019-05-07T05:25:52.276Z,90.80
2019-05-07T05:28:21.853Z,90.40
2019-05-07T05:30:55.252Z,89.70
2019-05-07T05:33:23.698Z,89.50
2019-05-07T05:35:52.660Z,89.20
2019-05-07T05:38:22.160Z,88.90
2019-05-07T05:40:52.075Z,88.20
2019-05-07T05:43:22.513Z,87.70
2019-05-07T05:46:02.741Z,86.70
2019-05-07T05:48:33.349Z,87.20
2019-05-07T05:51:03.180Z,86.20
2019-05-07T05:53:43.385Z,86.70
2019-05-07T05:56:13.863Z,86.90
2019-05-07T05:59:02.696Z,86.90
2019-05-07T06:01:51.940Z,86.40
2019-05-07T06:04:22.236Z,85.40
2019-05-07T06:07:10.671Z,84.10
2019-05-07T06:09:33.191Z,83.90
2019-05-07T06:12:18.435Z,83.20
2019-05-07T06:14:54.382Z,83.50
2019-05-07T06:17:36.207Z,83.10
2019-05-07T06:20:12.248Z,82.60
2019-05-07T06:22:45.433Z,81.20
2019-05-07T06:25:15.681Z,80.00
2019-05-07T06:27:44.119Z,80.60
2019-05-07T06:30:13.015Z,79.20
2019-05-07T06:32:43.030Z,78.60
2019-05-07T06:35:12.403Z,78.30
2019-05-07T06:37:42.887Z,76.60
2019-05-07T06:40:32.061Z,75.50
2019-05-07T06:43:12.421Z,75.60
2019-05-07T06:45:42.373Z,75.70
2019-05-07T06:48:12.620Z,75.40
2019-05-07T06:50:43.272Z,75.50
2019-05-07T06:53:12.115Z,74.70
2019-05-07T06:55:42.671Z,77.50
2019-05-07T06:58:12.258Z,77.20
2019-05-07T07:00:42.564Z,75.90
2019-05-07T07:03:24.637Z,74.60
2019-05-07T07:06:02.709Z,71.80
2019-05-07T07:08:35.651Z,70.90
2019-05-07T07:11:08.035Z,70.70
2019-05-07T07:13:36.612Z,68.10
2019-05-07T07:16:05.092Z,68.00
2019-05-07T07:18:33.533Z,68.00
2019-05-07T07:21:02.571Z,68.50
2019-05-07T07:23:32.416Z,69.80
2019-05-07T07:26:03.187Z,69.40
2019-05-07T07:28:32.761Z,71.90
2019-05-07T07:31:03.239Z,74.50
2019-05-07T07:33:33.407Z,74.10
2019-05-07T07:36:02.465Z,72.70
2019-05-07T07:38:33.125Z,70.90
2019-05-07T07:41:05.508Z,71.80
2019-05-07T07:43:34.139Z,71.00
2019-05-07T07:46:02.647Z,70.80
2019-05-07T07:48:32.047Z,72.20
2019-05-07T07:51:03.004Z,74.30
2019-05-07T07:53:34.855Z,75.00
2019-05-07T07:56:19.095Z,72.30
2019-05-07T07:58:57.919Z,72.10
2019-05-07T08:01:34.133Z,68.50
2019-05-07T08:04:02.953Z,69.20
2019-05-07T08:06:32.696Z,66.20
2019-05-07T08:09:02.213Z,66.30
2019-05-07T08:11:31.926Z,69.20
2019-05-07T08:14:02.327Z,71.10
2019-05-07T08:16:32.785Z,71.20
2019-05-07T08:19:02.961Z,70.70
2019-05-07T08:21:33.192Z,70.90
2019-05-07T08:24:02.826Z,70.80
2019-05-07T08:26:32.295Z,71.30
2019-05-07T08:29:02.918Z,69.10
2019-05-07T08:31:32.967Z,67.50
2019-05-07T08:34:21.858Z,64.70
2019-05-07T08:36:52.615Z,62.00
2019-05-07T08:39:22.348Z,63.50
2019-05-07T08:41:52.723Z,63.50
2019-05-07T08:44:22.939Z,65.40
2019-05-07T08:47:08.943Z,65.10
2019-05-07T08:49:40.352Z,61.10
2019-05-07T08:52:09.407Z,59.10
2019-05-07T08:54:38.484Z,59.70
2019-05-07T08:57:07.101Z,59.30
2019-05-07T08:59:36.075Z,56.90
2019-05-07T09:02:05.019Z,55.80
2019-05-07T09:04:33.636Z,58.00
2019-05-07T09:07:02.841Z,60.90
2019-05-07T09:09:32.486Z,64.10
2019-05-07T09:12:02.975Z,64.10
2019-05-07T09:14:32.022Z,63.70
2019-05-07T09:17:02.637Z,59.50
2019-05-07T09:19:32.356Z,60.90
2019-05-07T09:22:02.276Z,63.30
2019-05-07T09:24:32.972Z,64.30
2019-05-07T09:27:02.881Z,60.20
2019-05-07T09:29:42.662Z,58.80
2019-05-07T09:32:12.824Z,59.60
2019-05-07T09:34:42.902Z,55.80
2019-05-07T09:37:15.483Z,55.00
2019-05-07T09:39:43.912Z,57.60
2019-05-07T09:42:12.449Z,59.20
2019-05-07T09:44:42.468Z,60.20
2019-05-07T09:47:12.930Z,60.60
2019-05-07T09:49:41.949Z,59.80
2019-05-07T09:52:12.264Z,60.00
2019-05-07T09:54:42.702Z,60.40
2019-05-07T09:57:26.837Z,60.60
2019-05-07T09:59:42.605Z,59.40
2019-05-07T10:02:12.240Z,59.60
2019-05-07T10:04:41.775Z,57.20
2019-05-07T10:07:12.599Z,54.00
2019-05-07T10:09:42.589Z,51.60
2019-05-07T10:12:12.621Z,50.40
2019-05-07T10:14:42.071Z,52.80
2019-05-07T10:17:12.343Z,53.40
2019-05-07T10:19:41.710Z,52.60
2019-05-07T10:22:12.458Z,53.80
2019-05-07T10:24:41.899Z,53.70
2019-05-07T10:27:12.709Z,52.80
2019-05-07T10:29:42.762Z,52.00
2019-05-07T10:32:12.858Z,52.70
2019-05-07T10:34:42.259Z,54.70
2019-05-07T10:37:12.057Z,54.10
2019-05-07T10:39:42.893Z,51.60
2019-05-07T10:42:12.365Z,50.80
2019-05-07T10:44:57.400Z,49.20
2019-05-07T10:47:41.838Z,52.00
2019-05-07T10:50:15.329Z,51.60
2019-05-07T10:52:43.947Z,49.80
2019-05-07T10:55:12.807Z,47.40
2019-05-07T10:57:42.232Z,43.60
2019-05-07T11:00:13.938Z,43.20
2019-05-07T11:02:42.688Z,44.30
2019-05-07T11:05:12.951Z,46.20
2019-05-07T11:07:42.208Z,47.50
2019-05-07T11:10:12.426Z,46.70
2019-05-07T11:12:42.503Z,46.30
2019-05-07T11:15:12.694Z,45.80
2019-05-07T11:17:46.080Z,43.00
2019-05-07T11:20:15.783Z,41.40
2019-05-07T11:22:44.304Z,40.60
2019-05-07T11:25:12.957Z,44.10
2019-05-07T11:27:42.151Z,46.60
2019-05-07T11:30:12.386Z,46.70
2019-05-07T11:32:42.884Z,46.10
2019-05-07T11:35:11.780Z,46.90
2019-05-07T11:37:44.115Z,47.00
2019-05-07T11:40:13.088Z,46.30
2019-05-07T11:42:51.577Z,46.60
2019-05-07T11:45:22.762Z,48.60
2019-05-07T11:47:51.426Z,48.40
2019-05-07T11:50:24.319Z,47.60
2019-05-07T11:53:06.361Z,47.40
2019-05-07T11:55:34.896Z,45.90
2019-05-07T11:58:03.440Z,45.00
2019-05-07T12:00:33.699Z,45.70
2019-05-07T12:03:02.377Z,46.60
2019-05-07T12:05:33.039Z,48.10
2019-05-07T12:08:02.335Z,48.10
2019-05-07T12:10:32.904Z,47.50
2019-05-07T12:13:02.368Z,48.10
2019-05-07T12:15:32.420Z,49.40
2019-05-07T12:18:03.066Z,49.40
2019-05-07T12:20:32.382Z,49.40
2019-05-07T12:23:02.831Z,48.60
2019-05-07T12:25:32.040Z,46.50
2019-05-07T12:28:02.490Z,46.40
2019-05-07T12:30:35.722Z,44.50
2019-05-07T12:33:17.163Z,45.40
2019-05-07T12:35:45.604Z,46.20
2019-05-07T12:38:14.294Z,44.70
2019-05-07T12:40:43.378Z,43.70
2019-05-07T12:43:11.958Z,44.80
2019-05-07T12:45:42.144Z,44.40
2019-05-07T12:48:12.187Z,43.70
2019-05-07T12:50:43.028Z,45.50
2019-05-07T12:53:12.721Z,46.40
2019-05-07T12:55:45.764Z,44.60
2019-05-07T12:58:13.539Z,44.70
2019-05-07T13:00:43.958Z,45.50
2019-05-07T13:03:15.066Z,45.30
2019-05-07T13:05:43.630Z,46.30
2019-05-07T13:08:12.371Z,46.90
2019-05-07T13:10:42.890Z,48.30
2019-05-07T13:13:12.307Z,49.10
2019-05-07T13:15:43.246Z,47.40
2019-05-07T13:18:12.683Z,47.40
2019-05-07T13:20:41.375Z,45.80
2019-05-07T13:23:11.841Z,44.40
2019-05-07T13:25:40.098Z,43.70
2019-05-07T13:28:08.688Z,42.80
2019-05-07T13:30:38.413Z,44.50
2019-05-07T13:33:06.976Z,44.10
2019-05-07T13:35:36.071Z,42.50
2019-05-07T13:38:06.929Z,42.50
2019-05-07T13:40:37.267Z,43.60
2019-05-07T13:43:14.243Z,44.10
2019-05-07T13:45:49.078Z,44.30
2019-05-07T13:48:24.617Z,44.50
2019-05-07T13:50:53.376Z,43.50
2019-05-07T13:53:22.807Z,42.50
2019-05-07T13:55:51.445Z,43.30
2019-05-07T13:58:20.353Z,43.00
2019-05-07T14:00:53.466Z,44.40
2019-05-07T14:03:22.694Z,42.00
2019-05-07T14:05:51.731Z,43.40
2019-05-07T14:08:23.062Z,45.10
2019-05-07T14:10:52.069Z,45.20
2019-05-07T14:13:21.936Z,43.80
2019-05-07T14:16:07.158Z,42.20
2019-05-07T14:18:37.690Z,42.20
2019-05-07T14:21:07.116Z,43.80
2019-05-07T14:23:35.979Z,42.80
2019-05-07T14:26:05.224Z,41.90
2019-05-07T14:28:33.964Z,40.90
2019-05-07T14:31:02.804Z,41.40
2019-05-07T14:33:38.721Z,43.20
2019-05-07T14:36:11.958Z,42.50
2019-05-07T14:38:45.221Z,42.50
2019-05-07T14:41:13.791Z,43.40
2019-05-07T14:43:53.131Z,43.40
2019-05-07T14:46:21.704Z,42.90
2019-05-07T14:48:51.998Z,44.70
2019-05-07T14:51:22.108Z,44.70
2019-05-07T14:53:50.885Z,45.10
2019-05-07T14:56:19.390Z,44.50
2019-05-07T14:58:47.827Z,42.50
2019-05-07T15:01:16.341Z,44.10
2019-05-07T15:03:44.983Z,44.30
2019-05-07T15:06:13.534Z,44.70
2019-05-07T15:08:42.948Z,44.70
2019-05-07T15:11:11.620Z,44.70
2019-05-07T15:13:40.280Z,45.10
2019-05-07T15:16:08.887Z,45.30
2019-05-07T15:18:42.385Z,46.10
2019-05-07T15:21:12.321Z,45.70
2019-05-07T15:23:42.434Z,45.00
2019-05-07T15:26:12.787Z,44.60
2019-05-07T15:28:43.244Z,45.60
2019-05-07T15:31:13.611Z,45.60
2019-05-07T15:33:42.168Z,45.50
2019-05-07T15:36:11.992Z,44.30
2019-05-07T15:38:42.717Z,42.00
2019-05-07T15:41:10.702Z,42.10
2019-05-07T15:43:39.175Z,42.90
2019-05-07T15:46:07.671Z,43.10
2019-05-07T15:48:36.134Z,43.20
2019-05-07T15:51:04.632Z,42.80
2019-05-07T15:53:51.893Z,43.30
2019-05-07T15:56:21.741Z,43.50
2019-05-07T15:58:51.772Z,42.60
2019-05-07T16:01:25.612Z,43.00
2019-05-07T16:03:54.985Z,42.80
2019-05-07T16:06:23.684Z,42.80
2019-05-07T16:08:53.789Z,43.10
2019-05-07T16:11:23.199Z,43.30
2019-05-07T16:14:05.598Z,44.20
2019-05-07T16:16:35.891Z,44.60
2019-05-07T16:19:15.199Z,44.80
2019-05-07T16:21:43.690Z,44.10
2019-05-07T16:24:12.309Z,41.70
2019-05-07T16:26:41.904Z,41.40
2019-05-07T16:29:12.990Z,43.10
2019-05-07T16:31:40.947Z,44.00
2019-05-07T16:34:09.426Z,43.30
2019-05-07T16:36:37.921Z,43.60
2019-05-07T16:39:07.288Z,43.60
2019-05-07T16:41:35.764Z,43.50
2019-05-07T16:44:04.894Z,44.10
2019-05-07T16:46:33.484Z,44.10
2019-05-07T16:49:02.419Z,43.60
2019-05-07T16:51:32.831Z,44.60
2019-05-07T16:54:03.250Z,43.80
2019-05-07T16:56:33.373Z,45.50
2019-05-07T16:59:03.484Z,45.80
2019-05-07T17:01:32.552Z,45.50
2019-05-07T17:04:02.736Z,44.60
2019-05-07T17:06:32.148Z,44.30
2019-05-07T17:09:13.841Z,44.60
2019-05-07T17:11:43.662Z,44.50
2019-05-07T17:14:13.020Z,45.10
2019-05-07T17:16:41.707Z,45.80
2019-05-07T17:19:11.931Z,45.80
2019-05-07T17:21:42.906Z,46.50
2019-05-07T17:24:11.964Z,47.40
2019-05-07T17:26:42.366Z,47.60
2019-05-07T17:29:12.039Z,47.70
2019-05-07T17:31:42.515Z,47.50
2019-05-07T17:34:11.813Z,47.20
2019-05-07T17:36:42.176Z,47.90
2019-05-07T17:39:12.197Z,49.20
2019-05-07T17:41:42.739Z,49.40
2019-05-07T17:44:11.873Z,49.60
2019-05-07T17:46:42.726Z,49.70
2019-05-07T17:49:11.965Z,49.80
2019-05-07T17:51:46.355Z,52.60
2019-05-07T17:54:14.980Z,53.80
2019-05-07T17:56:44.258Z,56.20
2019-05-07T17:59:12.930Z,56.60
2019-05-07T18:01:43.136Z,57.70
2019-05-07T18:04:11.802Z,57.20
2019-05-07T18:06:40.347Z,58.90
2019-05-07T18:09:08.883Z,60.70
2019-05-07T18:11:37.342Z,61.30
2019-05-07T18:14:05.893Z,60.30
2019-05-07T18:16:36.046Z,59.70
2019-05-07T18:19:04.644Z,60.70
2019-05-07T18:21:33.257Z,61.20
2019-05-07T18:24:13.378Z,61.30
2019-05-07T18:26:33.726Z,61.90
2019-05-07T18:29:02.546Z,62.30
2019-05-07T18:31:47.771Z,62.50
2019-05-07T18:34:16.551Z,63.30
2019-05-07T18:36:45.072Z,65.60
2019-05-07T18:39:13.578Z,66.00
2019-05-07T18:41:41.975Z,67.00
2019-05-07T18:44:13.486Z,68.70
2019-05-07T18:46:42.807Z,69.60
2019-05-07T18:49:12.781Z,70.30
2019-05-07T18:51:43.061Z,71.00
2019-05-07T18:54:16.006Z,72.50
2019-05-07T18:56:42.156Z,73.10
2019-05-07T18:59:11.471Z,74.30
2019-05-07T19:01:42.269Z,75.20
2019-05-07T19:04:12.944Z,75.90
2019-05-07T19:06:42.436Z,76.40
2019-05-07T19:09:11.161Z,76.90
2019-05-07T19:11:40.094Z,77.20
2019-05-07T19:14:08.576Z,77.10
2019-05-07T19:16:37.226Z,76.70
2019-05-07T19:19:05.675Z,76.90
2019-05-07T19:22:03.879Z,76.90
2019-05-07T19:24:26.174Z,76.90
2019-05-07T19:26:53.906Z,77.50
2019-05-07T19:29:23.354Z,77.70
2019-05-07T19:31:55.113Z,77.30
2019-05-07T19:34:23.711Z,77.80
2019-05-07T19:36:52.591Z,76.80
2019-05-07T19:39:23.180Z,77.00
2019-05-07T19:41:52.351Z,77.80
2019-05-07T19:44:21.015Z,78.50
2019-05-07T19:46:52.474Z,78.80
2019-05-07T19:49:21.176Z,79.20
2019-05-07T19:51:49.679Z,79.40
2019-05-07T19:54:19.059Z,79.80
2019-05-07T19:56:47.518Z,79.40
2019-05-07T19:59:15.942Z,80.00
2019-05-07T20:01:46.531Z,80.40
2019-05-07T20:04:15.246Z,80.60
2019-05-07T20:06:44.237Z,80.20
2019-05-07T20:09:15.546Z,78.30
2019-05-07T20:11:45.968Z,78.50
2019-05-07T20:14:14.505Z,76.20
2019-05-07T20:16:44.508Z,76.20
2019-05-07T20:19:13.113Z,77.60
2019-05-07T20:21:42.893Z,78.70
2019-05-07T20:24:12.509Z,79.40
2019-05-07T20:26:43.080Z,80.40
2019-05-07T20:29:12.419Z,80.50
2019-05-07T20:31:42.265Z,78.90
2019-05-07T20:34:13.052Z,78.10
2019-05-07T20:36:42.746Z,78.20
2019-05-07T20:39:12.772Z,78.20
2019-05-07T20:41:42.947Z,78.90
2019-05-07T20:44:12.139Z,77.40
2019-05-07T20:46:42.152Z,77.30
2019-05-07T20:49:12.890Z,77.20
2019-05-07T20:51:41.864Z,77.40
2019-05-07T20:54:17.895Z,77.70
2019-05-07T20:57:02.103Z,77.20
2019-05-07T20:59:30.000Z,78.10
2019-05-07T21:01:58.464Z,75.80
2019-05-07T21:04:26.879Z,75.20
2019-05-07T21:06:55.374Z,75.60
2019-05-07T21:09:23.945Z,76.60
2019-05-07T21:11:52.417Z,75.90
2019-05-07T21:14:22.834Z,76.00
2019-05-07T21:16:51.867Z,76.50
2019-05-07T21:19:22.324Z,76.80
2019-05-07T21:21:50.962Z,77.70
2019-05-07T21:24:19.534Z,79.20
2019-05-07T21:26:48.024Z,78.70
2019-05-07T21:29:16.561Z,79.20
2019-05-07T21:31:45.023Z,79.70
2019-05-07T21:34:13.502Z,78.10
2019-05-07T21:36:43.194Z,78.40
2019-05-07T21:39:13.085Z,78.10
2019-05-07T21:41:42.592Z,77.00
2019-05-07T21:44:11.275Z,77.30
2019-05-07T21:46:39.746Z,77.30
2019-05-07T21:49:08.190Z,77.40
2019-05-07T21:51:36.665Z,78.40
2019-05-07T21:54:12.644Z,77.40
2019-05-07T21:56:42.743Z,78.60
2019-05-07T21:59:15.819Z,79.30
2019-05-07T22:01:46.055Z,77.90
2019-05-07T22:04:14.556Z,77.00
2019-05-07T22:06:45.578Z,75.90
2019-05-07T22:09:14.199Z,75.60
2019-05-07T22:11:42.831Z,76.70
2019-05-07T22:14:12.818Z,75.90
2019-05-07T22:16:41.700Z,76.30
2019-05-07T22:19:12.138Z,76.10
2019-05-07T22:21:42.933Z,78.10
2019-05-07T22:24:13.033Z,78.20
2019-05-07T22:26:42.001Z,78.10
2019-05-07T22:29:12.537Z,80.50
2019-05-07T22:31:48.537Z,77.70
2019-05-07T22:34:24.383Z,79.00
2019-05-07T22:36:54.973Z,79.60
2019-05-07T22:39:22.993Z,79.00
2019-05-07T22:41:51.457Z,79.70
2019-05-07T22:44:23.713Z,78.70
2019-05-07T22:46:50.051Z,78.50
2019-05-07T22:49:18.489Z,77.50
2019-05-07T22:51:46.909Z,73.80
2019-05-07T22:54:15.371Z,73.90
2019-05-07T22:56:52.521Z,75.00
2019-05-07T22:59:22.410Z,76.20
2019-05-07T23:01:51.637Z,75.70
2019-05-07T23:04:22.941Z,75.70
2019-05-07T23:06:52.768Z,76.30
2019-05-07T23:09:22.306Z,78.60
2019-05-07T23:11:52.557Z,77.10
2019-05-07T23:14:22.659Z,76.50
2019-05-07T23:16:55.022Z,75.30
2019-05-07T23:19:22.114Z,76.20
2019-05-07T23:21:52.228Z,74.80
2019-05-07T23:24:22.611Z,75.90
2019-05-07T23:26:53.587Z,76.30
2019-05-07T23:29:22.440Z,75.20
2019-05-07T23:31:52.861Z,72.20
2019-05-07T23:34:22.163Z,73.70
2019-05-07T23:36:52.992Z,75.40
2019-05-07T23:39:22.650Z,73.90
2019-05-07T23:42:02.256Z,75.70
2019-05-07T23:44:30.893Z,75.60
2019-05-07T23:46:59.429Z,73.00
2019-05-07T23:49:27.908Z,76.60
2019-05-07T23:51:56.390Z,73.80
2019-05-07T23:54:24.857Z,75.30
2019-05-07T23:57:04.964Z,74.80
2019-05-07T23:59:23.584Z,75.60
